sensor_id;sensor_type;location;lat;lon;timestamp;P1;durP1;ratioP1;P2;durP2;ratioP2
295;SDS011;132;48.770;9.200;2024-02-14T00:00:21;7.28;;;4.68;;
295;SDS011;132;48.770;9.200;2024-02-14T00:03:10;10.65;;;5.15;;
295;SDS011;132;48.770;9.200;2024-02-14T00:05:57;8.90;;;4.50;;
295;SDS011;132;48.770;9.200;2024-02-14T00:08:44;7.90;;;4.68;;
295;SDS011;132;48.770;9.200;2024-02-14T00:11:30;11.20;;;4.90;;
295;SDS011;132;48.770;9.200;2024-02-14T00:14:18;14.20;;;4.85;;
295;SDS011;132;48.770;9.200;2024-02-14T00:17:07;8.63;;;4.45;;
295;SDS011;132;48.770;9.200;2024-02-14T00:19:53;11.10;;;4.40;;
295;SDS011;132;48.770;9.200;2024-02-14T00:22:40;6.85;;;4.32;;
295;SDS011;132;48.770;9.200;2024-02-14T00:25:27;8.85;;;4.65;;
295;SDS011;132;48.770;9.200;2024-02-14T00:28:15;10.95;;;4.00;;
295;SDS011;132;48.770;9.200;2024-02-14T00:31:01;9.23;;;4.38;;
295;SDS011;132;48.770;9.200;2024-02-14T00:34:06;5.65;;;3.60;;
295;SDS011;132;48.770;9.200;2024-02-14T00:36:53;8.65;;;3.53;;
295;SDS011;132;48.770;9.200;2024-02-14T00:39:40;6.40;;;3.20;;
295;SDS011;132;48.770;9.200;2024-02-14T00:42:26;8.40;;;3.55;;
295;SDS011;132;48.770;9.200;2024-02-14T00:45:13;7.90;;;3.55;;
295;SDS011;132;48.770;9.200;2024-02-14T00:48:01;12.63;;;3.42;;
295;SDS011;132;48.770;9.200;2024-02-14T00:50:47;6.90;;;3.75;;
295;SDS011;132;48.770;9.200;2024-02-14T00:53:34;6.75;;;3.35;;
295;SDS011;132;48.770;9.200;2024-02-14T00:56:21;9.23;;;3.28;;
295;SDS011;132;48.770;9.200;2024-02-14T00:59:09;5.90;;;3.28;;
295;SDS011;132;48.770;9.200;2024-02-14T01:01:56;7.45;;;3.28;;
295;SDS011;132;48.770;9.200;2024-02-14T01:04:43;7.18;;;3.05;;
295;SDS011;132;48.770;9.200;2024-02-14T01:07:30;10.60;;;2.92;;
295;SDS011;132;48.770;9.200;2024-02-14T01:10:16;8.85;;;3.38;;
295;SDS011;132;48.770;9.200;2024-02-14T01:13:04;6.65;;;2.92;;
295;SDS011;132;48.770;9.200;2024-02-14T01:15:52;9.77;;;3.22;;
295;SDS011;132;48.770;9.200;2024-02-14T01:18:39;6.60;;;3.00;;
295;SDS011;132;48.770;9.200;2024-02-14T01:21:25;8.68;;;3.30;;
295;SDS011;132;48.770;9.200;2024-02-14T01:24:12;10.52;;;3.30;;
295;SDS011;132;48.770;9.200;2024-02-14T01:26:59;6.22;;;3.20;;
295;SDS011;132;48.770;9.200;2024-02-14T01:29:45;6.00;;;3.13;;
295;SDS011;132;48.770;9.200;2024-02-14T01:32:32;5.90;;;3.20;;
295;SDS011;132;48.770;9.200;2024-02-14T01:35:18;7.28;;;3.65;;
295;SDS011;132;48.770;9.200;2024-02-14T01:38:05;5.65;;;2.90;;
295;SDS011;132;48.770;9.200;2024-02-14T01:40:52;8.30;;;2.90;;
295;SDS011;132;48.770;9.200;2024-02-14T01:43:39;6.50;;;2.95;;
295;SDS011;132;48.770;9.200;2024-02-14T01:46:25;5.25;;;3.10;;
295;SDS011;132;48.770;9.200;2024-02-14T01:49:15;6.65;;;2.92;;
295;SDS011;132;48.770;9.200;2024-02-14T01:52:03;4.70;;;2.90;;
295;SDS011;132;48.770;9.200;2024-02-14T01:54:50;8.93;;;2.97;;
295;SDS011;132;48.770;9.200;2024-02-14T01:57:38;5.15;;;2.70;;
295;SDS011;132;48.770;9.200;2024-02-14T02:00:25;4.03;;;2.80;;
295;SDS011;132;48.770;9.200;2024-02-14T02:03:15;5.45;;;2.88;;
295;SDS011;132;48.770;9.200;2024-02-14T02:06:02;5.05;;;2.42;;
295;SDS011;132;48.770;9.200;2024-02-14T02:08:49;6.93;;;2.83;;
295;SDS011;132;48.770;9.200;2024-02-14T02:11:46;8.30;;;3.20;;
295;SDS011;132;48.770;9.200;2024-02-14T02:14:54;3.95;;;2.47;;
295;SDS011;132;48.770;9.200;2024-02-14T02:18:02;4.68;;;2.90;;
295;SDS011;132;48.770;9.200;2024-02-14T02:21:11;7.35;;;3.00;;
295;SDS011;132;48.770;9.200;2024-02-14T02:24:00;5.85;;;2.95;;
295;SDS011;132;48.770;9.200;2024-02-14T02:26:47;6.30;;;3.28;;
295;SDS011;132;48.770;9.200;2024-02-14T02:29:54;7.13;;;3.35;;
295;SDS011;132;48.770;9.200;2024-02-14T02:32:41;11.70;;;3.20;;
295;SDS011;132;48.770;9.200;2024-02-14T02:35:28;6.80;;;2.80;;
295;SDS011;132;48.770;9.200;2024-02-14T02:38:35;9.05;;;3.03;;
295;SDS011;132;48.770;9.200;2024-02-14T02:41:44;5.78;;;3.05;;
295;SDS011;132;48.770;9.200;2024-02-14T02:44:52;5.50;;;2.90;;
295;SDS011;132;48.770;9.200;2024-02-14T02:48:07;6.93;;;3.08;;
295;SDS011;132;48.770;9.200;2024-02-14T02:51:17;6.15;;;3.15;;
295;SDS011;132;48.770;9.200;2024-02-14T02:54:30;7.53;;;3.30;;
295;SDS011;132;48.770;9.200;2024-02-14T02:57:40;4.53;;;2.90;;
295;SDS011;132;48.770;9.200;2024-02-14T03:00:27;4.00;;;2.97;;
295;SDS011;132;48.770;9.200;2024-02-14T03:03:27;6.32;;;3.65;;
295;SDS011;132;48.770;9.200;2024-02-14T03:06:26;5.97;;;3.40;;
295;SDS011;132;48.770;9.200;2024-02-14T03:09:26;5.32;;;3.20;;
295;SDS011;132;48.770;9.200;2024-02-14T03:12:34;8.57;;;3.13;;
295;SDS011;132;48.770;9.200;2024-02-14T03:15:41;7.65;;;3.35;;
295;SDS011;132;48.770;9.200;2024-02-14T03:18:29;5.40;;;3.20;;
295;SDS011;132;48.770;9.200;2024-02-14T03:21:16;7.13;;;3.38;;
295;SDS011;132;48.770;9.200;2024-02-14T03:24:03;6.13;;;3.35;;
295;SDS011;132;48.770;9.200;2024-02-14T03:26:51;5.40;;;2.97;;
295;SDS011;132;48.770;9.200;2024-02-14T03:29:39;6.07;;;3.03;;
295;SDS011;132;48.770;9.200;2024-02-14T03:32:27;6.18;;;3.50;;
295;SDS011;132;48.770;9.200;2024-02-14T03:35:13;7.28;;;3.10;;
295;SDS011;132;48.770;9.200;2024-02-14T03:38:01;8.02;;;3.13;;
295;SDS011;132;48.770;9.200;2024-02-14T03:40:48;8.30;;;3.58;;
295;SDS011;132;48.770;9.200;2024-02-14T03:43:34;5.55;;;3.33;;
295;SDS011;132;48.770;9.200;2024-02-14T03:46:22;5.63;;;3.35;;
295;SDS011;132;48.770;9.200;2024-02-14T03:49:08;6.40;;;3.22;;
295;SDS011;132;48.770;9.200;2024-02-14T03:51:55;6.75;;;3.15;;
295;SDS011;132;48.770;9.200;2024-02-14T03:54:42;5.15;;;2.70;;
295;SDS011;132;48.770;9.200;2024-02-14T03:57:29;5.07;;;2.95;;
295;SDS011;132;48.770;9.200;2024-02-14T04:00:16;4.85;;;2.80;;
295;SDS011;132;48.770;9.200;2024-02-14T04:03:03;8.07;;;3.10;;
295;SDS011;132;48.770;9.200;2024-02-14T04:05:50;6.65;;;2.85;;
295;SDS011;132;48.770;9.200;2024-02-14T04:08:37;4.97;;;2.70;;
295;SDS011;132;48.770;9.200;2024-02-14T04:11:23;12.05;;;2.97;;
295;SDS011;132;48.770;9.200;2024-02-14T04:14:10;4.80;;;2.95;;
295;SDS011;132;48.770;9.200;2024-02-14T04:16:57;5.10;;;2.90;;
295;SDS011;132;48.770;9.200;2024-02-14T04:19:43;5.45;;;2.97;;
295;SDS011;132;48.770;9.200;2024-02-14T04:22:30;4.78;;;2.78;;
295;SDS011;132;48.770;9.200;2024-02-14T04:25:17;7.63;;;3.03;;
295;SDS011;132;48.770;9.200;2024-02-14T04:28:04;6.68;;;3.13;;
295;SDS011;132;48.770;9.200;2024-02-14T04:30:51;6.32;;;3.00;;
295;SDS011;132;48.770;9.200;2024-02-14T04:33:42;9.48;;;3.08;;
295;SDS011;132;48.770;9.200;2024-02-14T04:36:30;6.28;;;3.15;;
295;SDS011;132;48.770;9.200;2024-02-14T04:39:16;5.35;;;2.65;;
295;SDS011;132;48.770;9.200;2024-02-14T04:42:03;4.28;;;2.90;;
295;SDS011;132;48.770;9.200;2024-02-14T04:44:51;5.10;;;2.80;;
295;SDS011;132;48.770;9.200;2024-02-14T04:47:37;6.18;;;2.92;;
295;SDS011;132;48.770;9.200;2024-02-14T04:50:24;4.63;;;2.97;;
295;SDS011;132;48.770;9.200;2024-02-14T04:53:10;5.00;;;3.05;;
295;SDS011;132;48.770;9.200;2024-02-14T04:55:57;4.40;;;2.90;;
295;SDS011;132;48.770;9.200;2024-02-14T04:58:44;4.07;;;2.80;;
295;SDS011;132;48.770;9.200;2024-02-14T05:01:30;5.47;;;3.15;;
295;SDS011;132;48.770;9.200;2024-02-14T05:04:17;7.18;;;3.00;;
295;SDS011;132;48.770;9.200;2024-02-14T05:07:04;6.60;;;3.05;;
295;SDS011;132;48.770;9.200;2024-02-14T05:09:51;4.35;;;2.80;;
295;SDS011;132;48.770;9.200;2024-02-14T05:12:39;4.63;;;2.90;;
295;SDS011;132;48.770;9.200;2024-02-14T05:15:26;7.45;;;3.25;;
295;SDS011;132;48.770;9.200;2024-02-14T05:18:14;5.93;;;2.97;;
295;SDS011;132;48.770;9.200;2024-02-14T05:21:04;5.47;;;2.72;;
295;SDS011;132;48.770;9.200;2024-02-14T05:23:52;5.35;;;2.78;;
295;SDS011;132;48.770;9.200;2024-02-14T05:26:38;9.88;;;3.17;;
295;SDS011;132;48.770;9.200;2024-02-14T05:29:25;8.65;;;3.22;;
295;SDS011;132;48.770;9.200;2024-02-14T05:32:12;4.00;;;2.90;;
295;SDS011;132;48.770;9.200;2024-02-14T05:34:58;7.82;;;3.20;;
295;SDS011;132;48.770;9.200;2024-02-14T05:37:45;5.68;;;3.00;;
295;SDS011;132;48.770;9.200;2024-02-14T05:40:35;8.05;;;3.05;;
295;SDS011;132;48.770;9.200;2024-02-14T05:43:25;5.60;;;3.47;;
295;SDS011;132;48.770;9.200;2024-02-14T05:46:12;4.85;;;3.20;;
295;SDS011;132;48.770;9.200;2024-02-14T05:48:58;5.20;;;2.97;;
295;SDS011;132;48.770;9.200;2024-02-14T05:51:45;6.60;;;3.55;;
295;SDS011;132;48.770;9.200;2024-02-14T05:54:31;7.25;;;3.60;;
295;SDS011;132;48.770;9.200;2024-02-14T05:57:18;7.63;;;4.00;;
295;SDS011;132;48.770;9.200;2024-02-14T06:00:06;9.75;;;3.90;;
295;SDS011;132;48.770;9.200;2024-02-14T06:02:57;8.27;;;3.70;;
295;SDS011;132;48.770;9.200;2024-02-14T06:05:44;7.20;;;4.28;;
295;SDS011;132;48.770;9.200;2024-02-14T06:08:31;9.43;;;4.40;;
295;SDS011;132;48.770;9.200;2024-02-14T06:11:18;8.98;;;4.57;;
295;SDS011;132;48.770;9.200;2024-02-14T06:14:07;7.55;;;4.07;;
295;SDS011;132;48.770;9.200;2024-02-14T06:16:54;8.30;;;3.88;;
295;SDS011;132;48.770;9.200;2024-02-14T06:19:41;6.55;;;3.90;;
295;SDS011;132;48.770;9.200;2024-02-14T06:22:27;6.60;;;3.78;;
295;SDS011;132;48.770;9.200;2024-02-14T06:25:14;8.52;;;4.25;;
295;SDS011;132;48.770;9.200;2024-02-14T06:28:13;7.75;;;3.70;;
295;SDS011;132;48.770;9.200;2024-02-14T06:31:00;10.90;;;4.13;;
295;SDS011;132;48.770;9.200;2024-02-14T06:33:46;6.30;;;3.55;;
295;SDS011;132;48.770;9.200;2024-02-14T06:36:33;6.72;;;3.42;;
295;SDS011;132;48.770;9.200;2024-02-14T06:39:20;6.05;;;3.70;;
295;SDS011;132;48.770;9.200;2024-02-14T06:42:07;5.85;;;3.30;;
295;SDS011;132;48.770;9.200;2024-02-14T06:44:53;5.78;;;3.28;;
295;SDS011;132;48.770;9.200;2024-02-14T06:47:40;8.70;;;3.22;;
295;SDS011;132;48.770;9.200;2024-02-14T06:50:26;5.53;;;3.20;;
295;SDS011;132;48.770;9.200;2024-02-14T06:53:15;5.38;;;3.38;;
295;SDS011;132;48.770;9.200;2024-02-14T06:56:01;7.15;;;3.10;;
295;SDS011;132;48.770;9.200;2024-02-14T06:58:48;6.90;;;3.20;;
295;SDS011;132;48.770;9.200;2024-02-14T07:01:39;8.70;;;3.08;;
295;SDS011;132;48.770;9.200;2024-02-14T07:04:26;8.07;;;3.20;;
295;SDS011;132;48.770;9.200;2024-02-14T07:07:12;6.55;;;2.90;;
295;SDS011;132;48.770;9.200;2024-02-14T07:09:59;6.03;;;3.10;;
295;SDS011;132;48.770;9.200;2024-02-14T07:12:46;4.50;;;2.60;;
295;SDS011;132;48.770;9.200;2024-02-14T07:15:32;8.23;;;3.10;;
295;SDS011;132;48.770;9.200;2024-02-14T07:18:19;5.72;;;3.10;;
295;SDS011;132;48.770;9.200;2024-02-14T07:21:06;5.78;;;2.90;;
295;SDS011;132;48.770;9.200;2024-02-14T07:23:52;4.45;;;2.70;;
295;SDS011;132;48.770;9.200;2024-02-14T07:26:39;10.00;;;2.90;;
295;SDS011;132;48.770;9.200;2024-02-14T07:29:30;3.40;;;2.25;;
295;SDS011;132;48.770;9.200;2024-02-14T07:32:17;6.55;;;2.72;;
295;SDS011;132;48.770;9.200;2024-02-14T07:35:03;4.45;;;2.70;;
295;SDS011;132;48.770;9.200;2024-02-14T07:37:52;6.10;;;2.95;;
295;SDS011;132;48.770;9.200;2024-02-14T07:40:39;4.78;;;2.70;;
295;SDS011;132;48.770;9.200;2024-02-14T07:43:35;6.43;;;2.83;;
295;SDS011;132;48.770;9.200;2024-02-14T07:46:22;5.93;;;2.95;;
295;SDS011;132;48.770;9.200;2024-02-14T07:49:09;4.68;;;3.05;;
295;SDS011;132;48.770;9.200;2024-02-14T07:51:56;7.85;;;3.45;;
295;SDS011;132;48.770;9.200;2024-02-14T07:54:43;7.10;;;3.63;;
295;SDS011;132;48.770;9.200;2024-02-14T07:57:29;9.02;;;3.38;;
295;SDS011;132;48.770;9.200;2024-02-14T08:00:16;6.32;;;3.67;;
295;SDS011;132;48.770;9.200;2024-02-14T08:03:08;10.57;;;4.03;;
295;SDS011;132;48.770;9.200;2024-02-14T08:05:55;7.95;;;3.70;;
295;SDS011;132;48.770;9.200;2024-02-14T08:08:41;15.50;;;4.10;;
295;SDS011;132;48.770;9.200;2024-02-14T08:11:29;11.25;;;3.85;;
295;SDS011;132;48.770;9.200;2024-02-14T08:14:16;8.73;;;3.50;;
295;SDS011;132;48.770;9.200;2024-02-14T08:17:03;9.13;;;3.22;;
295;SDS011;132;48.770;9.200;2024-02-14T08:19:49;7.00;;;3.40;;
295;SDS011;132;48.770;9.200;2024-02-14T08:22:36;5.50;;;3.45;;
295;SDS011;132;48.770;9.200;2024-02-14T08:25:23;7.63;;;3.90;;
295;SDS011;132;48.770;9.200;2024-02-14T08:28:09;10.95;;;3.92;;
295;SDS011;132;48.770;9.200;2024-02-14T08:30:56;4.97;;;3.40;;
295;SDS011;132;48.770;9.200;2024-02-14T08:33:43;8.57;;;4.15;;
295;SDS011;132;48.770;9.200;2024-02-14T08:36:29;8.70;;;4.28;;
295;SDS011;132;48.770;9.200;2024-02-14T08:39:16;8.68;;;4.40;;
295;SDS011;132;48.770;9.200;2024-02-14T08:42:03;9.52;;;3.85;;
